sensor_id;sensor_type;location;lat;lon;timestamp;temperature;humidity
25332;DHT22;13284;52.748;13.452;2022-08-30T00:00:34;14.90;99.90
25332;DHT22;13284;52.748;13.452;2022-08-30T00:03:19;14.90;99.90
25332;DHT22;13284;52.748;13.452;2022-08-30T00:05:45;14.90;99.90
25332;DHT22;13284;52.748;13.452;2022-08-30T00:08:11;14.90;99.90
25332;DHT22;13284;52.748;13.452;2022-08-30T00:10:37;14.90;99.90
25332;DHT22;13284;52.748;13.452;2022-08-30T00:13:04;14.90;99.90
25332;DHT22;13284;52.748;13.452;2022-08-30T00:15:30;14.90;99.90
25332;DHT22;13284;52.748;13.452;2022-08-30T00:17:56;14.90;99.90
25332;DHT22;13284;52.748;13.452;2022-08-30T00:20:24;14.80;99.90
25332;DHT22;13284;52.748;13.452;2022-08-30T00:22:50;14.80;99.90
25332;DHT22;13284;52.748;13.452;2022-08-30T00:25:16;14.80;99.90
25332;DHT22;13284;52.748;13.452;2022-08-30T00:27:42;14.70;99.90
25332;DHT22;13284;52.748;13.452;2022-08-30T00:30:10;14.70;99.90
25332;DHT22;13284;52.748;13.452;2022-08-30T00:32:35;14.60;99.90
25332;DHT22;13284;52.748;13.452;2022-08-30T00:35:01;14.60;99.90
25332;DHT22;13284;52.748;13.452;2022-08-30T00:37:26;14.50;99.90
25332;DHT22;13284;52.748;13.452;2022-08-30T00:39:52;14.40;99.90
25332;DHT22;13284;52.748;13.452;2022-08-30T00:42:19;14.40;99.90
25332;DHT22;13284;52.748;13.452;2022-08-30T00:44:45;14.40;99.90
25332;DHT22;13284;52.748;13.452;2022-08-30T00:47:11;14.40;99.90
25332;DHT22;13284;52.748;13.452;2022-08-30T00:49:38;14.50;99.90
25332;DHT22;13284;52.748;13.452;2022-08-30T00:52:06;14.40;99.90
25332;DHT22;13284;52.748;13.452;2022-08-30T00:54:33;14.40;99.90
25332;DHT22;13284;52.748;13.452;2022-08-30T00:57:00;14.50;99.90
25332;DHT22;13284;52.748;13.452;2022-08-30T00:59:26;14.50;99.90
25332;DHT22;13284;52.748;13.452;2022-08-30T01:01:53;14.50;99.90
25332;DHT22;13284;52.748;13.452;2022-08-30T01:04:20;14.50;99.90
25332;DHT22;13284;52.748;13.452;2022-08-30T01:06:47;14.50;99.90
25332;DHT22;13284;52.748;13.452;2022-08-30T01:09:13;14.50;99.90
25332;DHT22;13284;52.748;13.452;2022-08-30T01:11:40;14.50;99.90
25332;DHT22;13284;52.748;13.452;2022-08-30T01:14:08;14.50;99.90
25332;DHT22;13284;52.748;13.452;2022-08-30T01:16:36;14.40;99.90
25332;DHT22;13284;52.748;13.452;2022-08-30T01:19:03;14.50;99.90
25332;DHT22;13284;52.748;13.452;2022-08-30T01:21:47;14.50;99.90
25332;DHT22;13284;52.748;13.452;2022-08-30T01:24:14;14.40;99.90
25332;DHT22;13284;52.748;13.452;2022-08-30T01:26:40;14.30;99.90
25332;DHT22;13284;52.748;13.452;2022-08-30T01:29:09;14.30;99.90
25332;DHT22;13284;52.748;13.452;2022-08-30T01:31:35;14.30;99.90
25332;DHT22;13284;52.748;13.452;2022-08-30T01:34:02;14.30;99.90
25332;DHT22;13284;52.748;13.452;2022-08-30T01:36:29;14.40;99.90
25332;DHT22;13284;52.748;13.452;2022-08-30T01:38:56;14.30;99.90
25332;DHT22;13284;52.748;13.452;2022-08-30T01:41:28;14.40;99.90
25332;DHT22;13284;52.748;13.452;2022-08-30T01:43:57;14.40;99.90
25332;DHT22;13284;52.748;13.452;2022-08-30T01:46:27;14.40;99.90
25332;DHT22;13284;52.748;13.452;2022-08-30T01:48:54;14.40;99.90
25332;DHT22;13284;52.748;13.452;2022-08-30T01:54:34;14.60;99.90
25332;DHT22;13284;52.748;13.452;2022-08-30T01:57:00;14.60;99.90
25332;DHT22;13284;52.748;13.452;2022-08-30T01:59:26;14.60;99.90
25332;DHT22;13284;52.748;13.452;2022-08-30T02:01:51;14.70;99.90
25332;DHT22;13284;52.748;13.452;2022-08-30T02:04:17;14.70;99.90
25332;DHT22;13284;52.748;13.452;2022-08-30T02:06:43;14.70;99.90
25332;DHT22;13284;52.748;13.452;2022-08-30T02:09:10;14.80;99.90
25332;DHT22;13284;52.748;13.452;2022-08-30T02:11:36;14.80;99.90
25332;DHT22;13284;52.748;13.452;2022-08-30T02:14:02;14.90;99.90
25332;DHT22;13284;52.748;13.452;2022-08-30T02:16:28;14.80;99.90
25332;DHT22;13284;52.748;13.452;2022-08-30T02:18:54;14.80;99.90
25332;DHT22;13284;52.748;13.452;2022-08-30T02:21:21;14.80;99.90
25332;DHT22;13284;52.748;13.452;2022-08-30T02:23:47;14.70;99.90
25332;DHT22;13284;52.748;13.452;2022-08-30T02:26:13;14.70;99.90
25332;DHT22;13284;52.748;13.452;2022-08-30T02:28:39;14.70;99.90
25332;DHT22;13284;52.748;13.452;2022-08-30T02:31:05;14.80;99.90
25332;DHT22;13284;52.748;13.452;2022-08-30T02:33:31;14.90;99.90
25332;DHT22;13284;52.748;13.452;2022-08-30T02:35:57;14.90;99.90
25332;DHT22;13284;52.748;13.452;2022-08-30T02:38:23;14.90;99.90
25332;DHT22;13284;52.748;13.452;2022-08-30T02:40:49;14.90;99.90
25332;DHT22;13284;52.748;13.452;2022-08-30T02:43:15;15.00;99.90
25332;DHT22;13284;52.748;13.452;2022-08-30T02:45:41;15.00;99.90
25332;DHT22;13284;52.748;13.452;2022-08-30T02:48:07;15.00;99.90
25332;DHT22;13284;52.748;13.452;2022-08-30T02:50:33;15.10;99.90
25332;DHT22;13284;52.748;13.452;2022-08-30T02:52:58;15.10;99.90
25332;DHT22;13284;52.748;13.452;2022-08-30T02:55:24;15.10;99.90
25332;DHT22;13284;52.748;13.452;2022-08-30T02:57:49;15.10;99.90
25332;DHT22;13284;52.748;13.452;2022-08-30T03:00:18;15.00;99.90
25332;DHT22;13284;52.748;13.452;2022-08-30T03:02:45;15.10;99.90
25332;DHT22;13284;52.748;13.452;2022-08-30T03:05:12;15.10;99.90
25332;DHT22;13284;52.748;13.452;2022-08-30T03:07:39;15.20;99.90
25332;DHT22;13284;52.748;13.452;2022-08-30T03:10:06;15.20;99.90
25332;DHT22;13284;52.748;13.452;2022-08-30T03:12:32;15.20;99.90
25332;DHT22;13284;52.748;13.452;2022-08-30T03:14:58;15.20;99.90
25332;DHT22;13284;52.748;13.452;2022-08-30T03:17:23;15.20;99.90
25332;DHT22;13284;52.748;13.452;2022-08-30T03:19:49;15.20;99.90
25332;DHT22;13284;52.748;13.452;2022-08-30T03:22:15;15.20;99.90
25332;DHT22;13284;52.748;13.452;2022-08-30T03:24:40;15.30;99.90
25332;DHT22;13284;52.748;13.452;2022-08-30T03:27:06;15.30;99.90
25332;DHT22;13284;52.748;13.452;2022-08-30T03:29:32;15.20;99.90
25332;DHT22;13284;52.748;13.452;2022-08-30T03:31:58;15.30;99.90
25332;DHT22;13284;52.748;13.452;2022-08-30T03:34:24;15.30;99.90
25332;DHT22;13284;52.748;13.452;2022-08-30T03:36:51;15.40;99.90
25332;DHT22;13284;52.748;13.452;2022-08-30T03:39:17;15.40;99.90
25332;DHT22;13284;52.748;13.452;2022-08-30T03:41:43;15.40;99.90
25332;DHT22;13284;52.748;13.452;2022-08-30T03:44:10;15.40;99.90
25332;DHT22;13284;52.748;13.452;2022-08-30T03:46:36;15.30;99.90
25332;DHT22;13284;52.748;13.452;2022-08-30T03:49:02;15.30;99.90
25332;DHT22;13284;52.748;13.452;2022-08-30T03:51:28;15.30;99.90
25332;DHT22;13284;52.748;13.452;2022-08-30T03:53:53;15.30;99.90
25332;DHT22;13284;52.748;13.452;2022-08-30T03:56:19;15.40;99.90
25332;DHT22;13284;52.748;13.452;2022-08-30T03:58:45;15.40;99.90
25332;DHT22;13284;52.748;13.452;2022-08-30T04:01:10;15.40;99.90
25332;DHT22;13284;52.748;13.452;2022-08-30T04:03:36;15.50;99.90
25332;DHT22;13284;52.748;13.452;2022-08-30T04:06:02;15.50;99.90
25332;DHT22;13284;52.748;13.452;2022-08-30T04:08:28;15.60;99.90
25332;DHT22;13284;52.748;13.452;2022-08-30T04:10:54;15.60;99.90
25332;DHT22;13284;52.748;13.452;2022-08-30T04:13:21;15.70;99.90
25332;DHT22;13284;52.748;13.452;2022-08-30T04:15:47;15.70;99.90
25332;DHT22;13284;52.748;13.452;2022-08-30T04:18:13;15.70;99.90
25332;DHT22;13284;52.748;13.452;2022-08-30T04:20:39;15.60;99.90
25332;DHT22;13284;52.748;13.452;2022-08-30T04:23:05;15.60;99.90
25332;DHT22;13284;52.748;13.452;2022-08-30T04:25:33;15.70;99.90
25332;DHT22;13284;52.748;13.452;2022-08-30T04:27:59;15.70;99.90
25332;DHT22;13284;52.748;13.452;2022-08-30T04:30:24;15.70;99.90
25332;DHT22;13284;52.748;13.452;2022-08-30T04:32:50;15.80;99.90
25332;DHT22;13284;52.748;13.452;2022-08-30T04:35:15;15.80;99.90
25332;DHT22;13284;52.748;13.452;2022-08-30T04:37:41;15.90;99.90
25332;DHT22;13284;52.748;13.452;2022-08-30T04:40:07;15.90;99.90
25332;DHT22;13284;52.748;13.452;2022-08-30T04:42:34;15.90;99.90
25332;DHT22;13284;52.748;13.452;2022-08-30T04:45:05;15.90;99.90
25332;DHT22;13284;52.748;13.452;2022-08-30T04:47:32;16.00;99.90
25332;DHT22;13284;52.748;13.452;2022-08-30T04:49:57;16.00;99.90
25332;DHT22;13284;52.748;13.452;2022-08-30T04:52:23;16.10;99.90
25332;DHT22;13284;52.748;13.452;2022-08-30T04:54:53;16.10;99.90
25332;DHT22;13284;52.748;13.452;2022-08-30T04:57:20;16.10;99.90
25332;DHT22;13284;52.748;13.452;2022-08-30T04:59:45;16.20;99.90
25332;DHT22;13284;52.748;13.452;2022-08-30T05:02:12;16.20;99.90
25332;DHT22;13284;52.748;13.452;2022-08-30T05:04:37;16.30;99.90
25332;DHT22;13284;52.748;13.452;2022-08-30T05:07:23;16.30;99.90
25332;DHT22;13284;52.748;13.452;2022-08-30T05:09:48;16.40;99.90
25332;DHT22;13284;52.748;13.452;2022-08-30T05:12:14;16.40;99.90
25332;DHT22;13284;52.748;13.452;2022-08-30T05:14:39;16.40;99.90
25332;DHT22;13284;52.748;13.452;2022-08-30T05:17:05;16.40;99.90
25332;DHT22;13284;52.748;13.452;2022-08-30T05:19:31;16.50;99.90
25332;DHT22;13284;52.748;13.452;2022-08-30T05:21:58;16.50;99.90
25332;DHT22;13284;52.748;13.452;2022-08-30T05:24:24;16.50;99.90
25332;DHT22;13284;52.748;13.452;2022-08-30T05:26:50;16.60;99.90
25332;DHT22;13284;52.748;13.452;2022-08-30T05:29:15;16.60;99.90
25332;DHT22;13284;52.748;13.452;2022-08-30T05:31:42;16.70;99.90
25332;DHT22;13284;52.748;13.452;2022-08-30T05:34:09;16.60;99.90
25332;DHT22;13284;52.748;13.452;2022-08-30T05:36:36;16.80;99.90
25332;DHT22;13284;52.748;13.452;2022-08-30T05:39:04;16.80;99.90
25332;DHT22;13284;52.748;13.452;2022-08-30T05:41:30;16.70;99.90
25332;DHT22;13284;52.748;13.452;2022-08-30T05:43:57;16.80;99.90
25332;DHT22;13284;52.748;13.452;2022-08-30T05:46:24;16.80;99.90
25332;DHT22;13284;52.748;13.452;2022-08-30T05:48:50;16.90;99.90
25332;DHT22;13284;52.748;13.452;2022-08-30T05:51:21;16.90;99.90
25332;DHT22;13284;52.748;13.452;2022-08-30T05:53:48;16.90;99.90
25332;DHT22;13284;52.748;13.452;2022-08-30T05:56:16;17.00;99.90
25332;DHT22;13284;52.748;13.452;2022-08-30T05:58:43;17.00;99.90
25332;DHT22;13284;52.748;13.452;2022-08-30T06:01:24;17.00;99.90
25332;DHT22;13284;52.748;13.452;2022-08-30T06:03:50;17.00;99.90
25332;DHT22;13284;52.748;13.452;2022-08-30T06:06:16;17.00;99.90
25332;DHT22;13284;52.748;13.452;2022-08-30T06:08:42;17.00;99.90
25332;DHT22;13284;52.748;13.452;2022-08-30T06:11:19;17.00;99.90
25332;DHT22;13284;52.748;13.452;2022-08-30T06:13:47;17.10;99.90
25332;DHT22;13284;52.748;13.452;2022-08-30T06:16:15;17.10;99.90
25332;DHT22;13284;52.748;13.452;2022-08-30T06:18:41;17.10;99.90
25332;DHT22;13284;52.748;13.452;2022-08-30T06:21:07;17.20;99.90
25332;DHT22;13284;52.748;13.452;2022-08-30T06:23:32;17.10;99.90
25332;DHT22;13284;52.748;13.452;2022-08-30T06:26:05;17.10;99.90
25332;DHT22;13284;52.748;13.452;2022-08-30T06:28:31;17.10;99.90
25332;DHT22;13284;52.748;13.452;2022-08-30T06:30:57;17.20;99.90
25332;DHT22;13284;52.748;13.452;2022-08-30T06:33:23;17.30;99.90
25332;DHT22;13284;52.748;13.452;2022-08-30T06:35:49;17.30;99.90
25332;DHT22;13284;52.748;13.452;2022-08-30T06:38:14;17.20;99.90
25332;DHT22;13284;52.748;13.452;2022-08-30T06:40:40;17.20;99.90
25332;DHT22;13284;52.748;13.452;2022-08-30T06:43:06;17.30;99.90
25332;DHT22;13284;52.748;13.452;2022-08-30T06:45:33;17.30;99.90
25332;DHT22;13284;52.748;13.452;2022-08-30T06:47:58;17.20;99.90
25332;DHT22;13284;52.748;13.452;2022-08-30T06:50:24;17.30;99.90
25332;DHT22;13284;52.748;13.452;2022-08-30T06:52:50;17.30;99.90
25332;DHT22;13284;52.748;13.452;2022-08-30T06:55:17;17.30;99.90
25332;DHT22;13284;52.748;13.452;2022-08-30T06:57:43;17.30;99.90
25332;DHT22;13284;52.748;13.452;2022-08-30T07:00:12;17.30;99.90
25332;DHT22;13284;52.748;13.452;2022-08-30T07:02:38;17.30;99.90
25332;DHT22;13284;52.748;13.452;2022-08-30T07:05:05;17.20;99.90
25332;DHT22;13284;52.748;13.452;2022-08-30T07:07:32;17.20;99.90
25332;DHT22;13284;52.748;13.452;2022-08-30T07:09:57;17.20;99.90
25332;DHT22;13284;52.748;13.452;2022-08-30T07:12:23;17.10;99.90
25332;DHT22;13284;52.748;13.452;2022-08-30T07:14:49;17.10;99.90
25332;DHT22;13284;52.748;13.452;2022-08-30T07:17:14;17.20;99.90
25332;DHT22;13284;52.748;13.452;2022-08-30T07:19:59;17.10;99.90
25332;DHT22;13284;52.748;13.452;2022-08-30T07:22:24;17.20;99.90
25332;DHT22;13284;52.748;13.452;2022-08-30T07:24:50;17.10;99.90
25332;DHT22;13284;52.748;13.452;2022-08-30T07:27:15;17.20;99.90
25332;DHT22;13284;52.748;13.452;2022-08-30T07:29:41;17.10;99.90
25332;DHT22;13284;52.748;13.452;2022-08-30T07:32:07;17.10;99.90
25332;DHT22;13284;52.748;13.452;2022-08-30T07:34:32;17.10;99.90
25332;DHT22;13284;52.748;13.452;2022-08-30T07:37:00;17.20;99.90
25332;DHT22;13284;52.748;13.452;2022-08-30T07:39:26;17.20;99.90
25332;DHT22;13284;52.748;13.452;2022-08-30T07:41:51;17.30;99.90
25332;DHT22;13284;52.748;13.452;2022-08-30T07:44:17;17.30;99.90
25332;DHT22;13284;52.748;13.452;2022-08-30T07:46:42;17.40;99.90
25332;DHT22;13284;52.748;13.452;2022-08-30T07:49:08;17.50;99.90
25332;DHT22;13284;52.748;13.452;2022-08-30T07:51:37;17.50;99.90
25332;DHT22;13284;52.748;13.452;2022-08-30T07:54:02;17.60;99.90
25332;DHT22;13284;52.748;13.452;2022-08-30T07:56:28;17.70;99.90
25332;DHT22;13284;52.748;13.452;2022-08-30T07:58:54;17.70;99.90
25332;DHT22;13284;52.748;13.452;2022-08-30T08:01:21;17.70;99.90
25332;DHT22;13284;52.748;13.452;2022-08-30T08:03:47;17.80;99.90
25332;DHT22;13284;52.748;13.452;2022-08-30T08:06:16;17.80;99.90
25332;DHT22;13284;52.748;13.452;2022-08-30T08:08:42;17.90;99.90
25332;DHT22;13284;52.748;13.452;2022-08-30T08:11:18;18.10;99.90
25332;DHT22;13284;52.748;13.452;2022-08-30T08:13:46;17.90;99.90
25332;DHT22;13284;52.748;13.452;2022-08-30T08:16:11;17.90;99.90
25332;DHT22;13284;52.748;13.452;2022-08-30T08:18:37;18.10;99.90
25332;DHT22;13284;52.748;13.452;2022-08-30T08:21:03;18.20;99.90
25332;DHT22;13284;52.748;13.452;2022-08-30T08:23:29;18.10;99.90
25332;DHT22;13284;52.748;13.452;2022-08-30T08:25:54;18.20;99.90
25332;DHT22;13284;52.748;13.452;2022-08-30T08:28:20;18.20;99.90
25332;DHT22;13284;52.748;13.452;2022-08-30T08:30:47;18.30;99.90
25332;DHT22;13284;52.748;13.452;2022-08-30T08:33:14;18.40;99.90
25332;DHT22;13284;52.748;13.452;2022-08-30T08:35:41;18.40;99.90
25332;DHT22;13284;52.748;13.452;2022-08-30T08:38:06;18.50;99.90
25332;DHT22;13284;52.748;13.452;2022-08-30T08:41:01;18.70;99.90
25332;DHT22;13284;52.748;13.452;2022-08-30T08:43:29;18.80;99.90
25332;DHT22;13284;52.748;13.452;2022-08-30T08:46:15;18.70;99.90
25332;DHT22;13284;52.748;13.452;2022-08-30T08:48:50;18.90;99.90
25332;DHT22;13284;52.748;13.452;2022-08-30T08:51:19;18.90;99.90
25332;DHT22;13284;52.748;13.452;2022-08-30T08:56:37;18.90;99.90
25332;DHT22;13284;52.748;13.452;2022-08-30T08:59:08;18.90;99.90
25332;DHT22;13284;52.748;13.452;2022-08-30T09:01:34;19.00;99.90
25332;DHT22;13284;52.748;13.452;2022-08-30T09:04:08;19.00;99.90
25332;DHT22;13284;52.748;13.452;2022-08-30T09:09:18;19.10;99.90
25332;DHT22;13284;52.748;13.452;2022-08-30T09:11:46;19.50;99.90
25332;DHT22;13284;52.748;13.452;2022-08-30T09:14:16;19.60;99.90
25332;DHT22;13284;52.748;13.452;2022-08-30T09:16:52;19.90;99.90
25332;DHT22;13284;52.748;13.452;2022-08-30T09:19:32;20.20;99.90
25332;DHT22;13284;52.748;13.452;2022-08-30T09:22:01;20.20;99.90
25332;DHT22;13284;52.748;13.452;2022-08-30T09:24:36;20.50;99.90
25332;DHT22;13284;52.748;13.452;2022-08-30T09:27:17;20.90;99.90
25332;DHT22;13284;52.748;13.452;2022-08-30T09:30:02;21.50;99.90
25332;DHT22;13284;52.748;13.452;2022-08-30T09:32:34;21.50;99.90
25332;DHT22;13284;52.748;13.452;2022-08-30T09:34:59;21.40;99.90
25332;DHT22;13284;52.748;13.452;2022-08-30T09:37:55;21.30;99.90
25332;DHT22;13284;52.748;13.452;2022-08-30T09:40:28;21.20;99.90
25332;DHT22;13284;52.748;13.452;2022-08-30T09:43:09;21.30;99.90
25332;DHT22;13284;52.748;13.452;2022-08-30T09:45:40;21.10;99.90
25332;DHT22;13284;52.748;13.452;2022-08-30T09:48:31;21.10;99.90
25332;DHT22;13284;52.748;13.452;2022-08-30T09:56:45;20.80;99.90
25332;DHT22;13284;52.748;13.452;2022-08-30T10:05:19;20.90;99.90
25332;DHT22;13284;52.748;13.452;2022-08-30T10:07:58;21.00;99.90
25332;DHT22;13284;52.748;13.452;2022-08-30T10:10:40;21.00;99.90
25332;DHT22;13284;52.748;13.452;2022-08-30T10:16:43;21.50;99.90
25332;DHT22;13284;52.748;13.452;2022-08-30T10:19:30;21.50;99.90
25332;DHT22;13284;52.748;13.452;2022-08-30T10:21:59;21.30;99.90
25332;DHT22;13284;52.748;13.452;2022-08-30T10:24:39;21.40;99.90
25332;DHT22;13284;52.748;13.452;2022-08-30T10:27:12;21.10;99.90
25332;DHT22;13284;52.748;13.452;2022-08-30T10:29:48;20.80;99.90
25332;DHT22;13284;52.748;13.452;2022-08-30T10:32:19;20.80;99.90
25332;DHT22;13284;52.748;13.452;2022-08-30T10:35:16;20.70;99.90
25332;DHT22;13284;52.748;13.452;2022-08-30T10:37:47;20.60;99.90
25332;DHT22;13284;52.748;13.452;2022-08-30T10:40:20;20.60;99.90
25332;DHT22;13284;52.748;13.452;2022-08-30T10:43:15;20.70;99.90
25332;DHT22;13284;52.748;13.452;2022-08-30T10:45:45;20.80;99.90
25332;DHT22;13284;52.748;13.452;2022-08-30T10:48:37;21.00;99.90
25332;DHT22;13284;52.748;13.452;2022-08-30T10:51:08;21.30;99.90
25332;DHT22;13284;52.748;13.452;2022-08-30T10:56:50;21.50;99.90
25332;DHT22;13284;52.748;13.452;2022-08-30T10:59:18;21.60;99.90
25332;DHT22;13284;52.748;13.452;2022-08-30T11:10:05;22.70;99.90
25332;DHT22;13284;52.748;13.452;2022-08-30T11:15:19;23.10;99.90
25332;DHT22;13284;52.748;13.452;2022-08-30T11:17:57;23.40;99.90
25332;DHT22;13284;52.748;13.452;2022-08-30T11:20:39;23.40;99.90
25332;DHT22;13284;52.748;13.452;2022-08-30T11:33:56;24.40;99.90
25332;DHT22;13284;52.748;13.452;2022-08-30T11:42:27;24.70;99.90
25332;DHT22;13284;52.748;13.452;2022-08-30T11:47:58;24.40;99.90
25332;DHT22;13284;52.748;13.452;2022-08-30T11:53:04;24.40;99.90
25332;DHT22;13284;52.748;13.452;2022-08-30T11:58:34;24.30;99.90
25332;DHT22;13284;52.748;13.452;2022-08-30T12:03:40;24.70;99.90
25332;DHT22;13284;52.748;13.452;2022-08-30T12:06:07;24.40;99.90
25332;DHT22;13284;52.748;13.452;2022-08-30T12:11:02;24.10;99.90
25332;DHT22;13284;52.748;13.452;2022-08-30T12:16:25;23.70;99.90
25332;DHT22;13284;52.748;13.452;2022-08-30T12:19:16;23.70;99.90
25332;DHT22;13284;52.748;13.452;2022-08-30T12:21:54;23.90;99.90
25332;DHT22;13284;52.748;13.452;2022-08-30T12:26:54;23.90;99.90
25332;DHT22;13284;52.748;13.452;2022-08-30T12:29:28;23.70;99.90
25332;DHT22;13284;52.748;13.452;2022-08-30T12:31:57;23.50;99.90
25332;DHT22;13284;52.748;13.452;2022-08-30T12:34:27;23.60;99.90
25332;DHT22;13284;52.748;13.452;2022-08-30T12:36:57;23.50;99.90
25332;DHT22;13284;52.748;13.452;2022-08-30T12:39:30;23.70;99.90
25332;DHT22;13284;52.748;13.452;2022-08-30T12:44:39;24.00;99.90
25332;DHT22;13284;52.748;13.452;2022-08-30T12:47:06;24.10;99.90
25332;DHT22;13284;52.748;13.452;2022-08-30T12:49:35;24.10;99.90
25332;DHT22;13284;52.748;13.452;2022-08-30T12:54:53;23.70;99.90
25332;DHT22;13284;52.748;13.452;2022-08-30T12:57:43;23.60;99.90
25332;DHT22;13284;52.748;13.452;2022-08-30T13:00:35;23.80;99.90
25332;DHT22;13284;52.748;13.452;2022-08-30T13:03:33;24.00;99.90
25332;DHT22;13284;52.748;13.452;2022-08-30T13:05:59;24.10;99.90
25332;DHT22;13284;52.748;13.452;2022-08-30T13:13:43;23.00;99.90
25332;DHT22;13284;52.748;13.452;2022-08-30T13:16:36;22.70;99.90
25332;DHT22;13284;52.748;13.452;2022-08-30T13:19:29;22.50;99.90
25332;DHT22;13284;52.748;13.452;2022-08-30T13:21:57;22.30;99.90
25332;DHT22;13284;52.748;13.452;2022-08-30T13:24:23;22.10;99.90
25332;DHT22;13284;52.748;13.452;2022-08-30T13:26:49;22.00;99.90
25332;DHT22;13284;52.748;13.452;2022-08-30T13:29:18;21.90;99.90
25332;DHT22;13284;52.748;13.452;2022-08-30T13:31:44;21.80;99.90
25332;DHT22;13284;52.748;13.452;2022-08-30T13:34:10;21.80;99.90
25332;DHT22;13284;52.748;13.452;2022-08-30T13:36:42;21.70;99.90
25332;DHT22;13284;52.748;13.452;2022-08-30T13:39:10;21.70;99.90
25332;DHT22;13284;52.748;13.452;2022-08-30T13:41:36;21.60;99.90
25332;DHT22;13284;52.748;13.452;2022-08-30T13:44:02;21.60;99.90
25332;DHT22;13284;52.748;13.452;2022-08-30T13:46:29;21.50;99.90
25332;DHT22;13284;52.748;13.452;2022-08-30T13:49:02;21.50;99.90
25332;DHT22;13284;52.748;13.452;2022-08-30T13:52:02;21.70;99.90
25332;DHT22;13284;52.748;13.452;2022-08-30T13:58:26;21.80;99.90
25332;DHT22;13284;52.748;13.452;2022-08-30T14:03:57;21.90;99.90
25332;DHT22;13284;52.748;13.452;2022-08-30T14:06:23;22.00;99.90
25332;DHT22;13284;52.748;13.452;2022-08-30T14:08:53;22.20;99.90
25332;DHT22;13284;52.748;13.452;2022-08-30T14:11:22;22.30;99.90
25332;DHT22;13284;52.748;13.452;2022-08-30T14:13:49;22.20;99.90
25332;DHT22;13284;52.748;13.452;2022-08-30T14:16:15;22.30;99.90
25332;DHT22;13284;52.748;13.452;2022-08-30T14:18:41;22.00;99.90
25332;DHT22;13284;52.748;13.452;2022-08-30T14:21:06;22.20;99.90
25332;DHT22;13284;52.748;13.452;2022-08-30T14:23:37;22.20;99.90
25332;DHT22;13284;52.748;13.452;2022-08-30T14:26:06;22.10;99.90
25332;DHT22;13284;52.748;13.452;2022-08-30T14:28:35;22.20;99.90
25332;DHT22;13284;52.748;13.452;2022-08-30T14:31:01;22.20;99.90
25332;DHT22;13284;52.748;13.452;2022-08-30T14:33:27;22.20;99.90
25332;DHT22;13284;52.748;13.452;2022-08-30T14:35:52;22.20;99.90
25332;DHT22;13284;52.748;13.452;2022-08-30T14:38:18;22.30;99.90
25332;DHT22;13284;52.748;13.452;2022-08-30T14:40:43;22.50;99.90
25332;DHT22;13284;52.748;13.452;2022-08-30T14:43:09;22.50;99.90
25332;DHT22;13284;52.748;13.452;2022-08-30T14:45:37;22.60;99.90
25332;DHT22;13284;52.748;13.452;2022-08-30T14:48:02;22.70;99.90
25332;DHT22;13284;52.748;13.452;2022-08-30T14:50:34;22.90;99.90
25332;DHT22;13284;52.748;13.452;2022-08-30T14:52:59;22.90;99.90
25332;DHT22;13284;52.748;13.452;2022-08-30T14:55:25;23.00;99.90
25332;DHT22;13284;52.748;13.452;2022-08-30T14:57:53;23.00;99.90
25332;DHT22;13284;52.748;13.452;2022-08-30T15:00:18;22.90;99.90
25332;DHT22;13284;52.748;13.452;2022-08-30T15:02:44;22.60;99.90
25332;DHT22;13284;52.748;13.452;2022-08-30T15:05:09;22.70;99.90
25332;DHT22;13284;52.748;13.452;2022-08-30T15:07:35;22.60;99.90
25332;DHT22;13284;52.748;13.452;2022-08-30T15:10:01;22.30;99.90
25332;DHT22;13284;52.748;13.452;2022-08-30T15:12:27;22.50;99.90
25332;DHT22;13284;52.748;13.452;2022-08-30T15:14:53;22.40;99.90
25332;DHT22;13284;52.748;13.452;2022-08-30T15:17:18;22.30;99.90
25332;DHT22;13284;52.748;13.452;2022-08-30T15:19:44;22.30;99.90
25332;DHT22;13284;52.748;13.452;2022-08-30T15:22:10;22.10;99.90
25332;DHT22;13284;52.748;13.452;2022-08-30T15:24:35;21.90;99.90
25332;DHT22;13284;52.748;13.452;2022-08-30T15:27:02;21.60;99.90
25332;DHT22;13284;52.748;13.452;2022-08-30T15:29:28;21.50;99.90
25332;DHT22;13284;52.748;13.452;2022-08-30T15:31:53;21.40;99.90
25332;DHT22;13284;52.748;13.452;2022-08-30T15:34:20;21.40;99.90
25332;DHT22;13284;52.748;13.452;2022-08-30T15:36:49;21.50;99.90
25332;DHT22;13284;52.748;13.452;2022-08-30T15:39:16;21.80;99.90
25332;DHT22;13284;52.748;13.452;2022-08-30T15:41:43;22.00;99.90
25332;DHT22;13284;52.748;13.452;2022-08-30T15:44:09;22.00;99.90
25332;DHT22;13284;52.748;13.452;2022-08-30T15:46:37;22.00;99.90
25332;DHT22;13284;52.748;13.452;2022-08-30T15:49:12;22.10;99.90
25332;DHT22;13284;52.748;13.452;2022-08-30T15:51:38;22.00;99.90
25332;DHT22;13284;52.748;13.452;2022-08-30T15:54:05;22.00;99.90
25332;DHT22;13284;52.748;13.452;2022-08-30T15:56:31;21.70;99.90
25332;DHT22;13284;52.748;13.452;2022-08-30T15:58:57;21.50;99.90
25332;DHT22;13284;52.748;13.452;2022-08-30T16:01:23;21.30;99.90
25332;DHT22;13284;52.748;13.452;2022-08-30T16:03:49;21.20;99.90
25332;DHT22;13284;52.748;13.452;2022-08-30T16:06:18;21.20;99.90
25332;DHT22;13284;52.748;13.452;2022-08-30T16:08:44;21.20;99.90
25332;DHT22;13284;52.748;13.452;2022-08-30T16:11:11;21.00;99.90
25332;DHT22;13284;52.748;13.452;2022-08-30T16:13:37;21.00;99.90
25332;DHT22;13284;52.748;13.452;2022-08-30T16:16:04;21.00;99.90
25332;DHT22;13284;52.748;13.452;2022-08-30T16:18:31;20.90;99.90
25332;DHT22;13284;52.748;13.452;2022-08-30T16:23:30;20.80;99.90
25332;DHT22;13284;52.748;13.452;2022-08-30T16:25:55;20.90;99.90
25332;DHT22;13284;52.748;13.452;2022-08-30T16:28:23;20.70;99.90
25332;DHT22;13284;52.748;13.452;2022-08-30T16:30:49;21.00;99.90
25332;DHT22;13284;52.748;13.452;2022-08-30T16:33:14;20.80;99.90
25332;DHT22;13284;52.748;13.452;2022-08-30T16:35:40;20.90;99.90
25332;DHT22;13284;52.748;13.452;2022-08-30T16:38:05;20.80;99.90
25332;DHT22;13284;52.748;13.452;2022-08-30T16:40:31;20.80;99.90
25332;DHT22;13284;52.748;13.452;2022-08-30T16:42:57;20.80;99.90
25332;DHT22;13284;52.748;13.452;2022-08-30T16:45:22;20.80;99.90
25332;DHT22;13284;52.748;13.452;2022-08-30T16:47:48;20.90;99.90
25332;DHT22;13284;52.748;13.452;2022-08-30T16:50:14;21.00;99.90
25332;DHT22;13284;52.748;13.452;2022-08-30T16:52:42;21.10;99.90
25332;DHT22;13284;52.748;13.452;2022-08-30T16:55:08;21.00;99.90
25332;DHT22;13284;52.748;13.452;2022-08-30T16:57:34;20.90;99.90